Portada
METAR-TAF:

METAR-TAF

Aeroports :

Lyndonville, Vermont, Estats Units d'Amèrica

latitud: 44-34-09N, longitud: 072-01-05W, altitud: 362 m

Observació

L'informe es va fer fa 19 minuts, a les 06:58 UTC
Vent calma
Temperatura 12°C
Humitat 94%
Pressió 1013 hPa
Visibilitat: 16.1 km
Cel clar

METAR: KCDA 190658Z AUTO 00000KT 10SM CLR 12/11 A2991 RMK AO2 T01230113

Hora: 03:17 (07:17 UTC)


TAF: manca

Observacions i pronòstics meteorològics de més de 4000 aeroports (METAR i TAF).

Les estacions disponibles són els punts grocs i vermells al mapa.

Posi el ratolí al punt desitjat per veure el nom de l'estació.

Feu clic per veure les observacions i els pronòstics meteorològics.

Per canviar el mapa: feu clic els botons verds amb una creu de color negre per apropar; al botó verd amb un guió per allunyar la imatge; o en les fletxes verdes per a mapes adjacents.


METAR-TAF: